Providence, Rhode Island
Traffic Map
Current Weather Conditions
Providence, Rhode Island
Broken Clouds
Broken Clouds
24°
Feels Like: 14°
Wind Chill: 14° Ceiling: 4000
Heat Index: 24° Visibility: 10mi
Dew Point: 11° Wind: 10mph
Humidity: 57% Direction: 340° (NNW)
Pressure: 30.12in Gusts: 0mph
Raw Report DataKPVD 290951Z 34009KT 10SM BKN040 BKN065 BKN250 M04/M12 A3012 RMK AO2 SLP201 FIRST AUGMENTED T10441117
Traffic Incident Summary
Active as of:
Severity:
Category:
InformationThere was an issue retrieving the traffic information for this location. Please try a different location or try again shortly.
Advertisements
Track Severe Weather on mobile